Frost, Texas
Current Conditions -  °F | °C
As of 10:55 PM on Saturday 25 Oct 2014 (Local Time) from KINJ Reporting Station
Clear Clear  
Wind Chill: 74°   Ceiling: Unl
Heat Index: 74°   Visibility: 10mi
Dew Point: 59°   Wind: 9mph
Humidity: 58%   Direction: 160°SSE
Pressure: 30.08"   Gusts: NA
Location:  32.08°N, 96.81°W
Report Text: KINJ 260355Z AUTO 16008KT 10SM CLR 24/15 A3008 RMK AO2 T02350148
Loading
Personal Weather Stations






























Interactive Weather Map
Tropical Storm Tracking
New forecast layout! Learn more

10-Day Weather Forecast

Advertisements
Track Severe Weather on mobile